createdAt,value
2017-11-27T00:00:39.184Z,2.56
2017-11-27T00:01:41.831Z,2.55
2017-11-27T00:02:44.462Z,2.52
2017-11-27T00:03:47.072Z,2.52
2017-11-27T00:04:50.109Z,2.51
2017-11-27T00:05:52.741Z,2.56
2017-11-27T00:06:55.403Z,2.58
2017-11-27T00:07:58.074Z,2.57
2017-11-27T00:09:00.687Z,2.54
2017-11-27T00:10:03.311Z,2.56
2017-11-27T00:11:06.294Z,2.56
2017-11-27T00:12:08.897Z,2.54
2017-11-27T00:13:11.515Z,2.54
2017-11-27T00:14:14.200Z,2.56
2017-11-27T00:15:16.861Z,2.61
2017-11-27T00:16:19.449Z,2.64
2017-11-27T00:17:22.572Z,2.60
2017-11-27T00:18:25.161Z,2.62
2017-11-27T00:19:27.796Z,2.65
2017-11-27T00:20:30.407Z,2.59
2017-11-27T00:21:33.253Z,2.56
2017-11-27T00:22:35.996Z,2.56
2017-11-27T00:23:39.178Z,2.56
2017-11-27T00:24:41.817Z,2.57
2017-11-27T00:25:44.354Z,2.56
2017-11-27T00:26:47.184Z,2.57
2017-11-27T00:27:49.755Z,2.58
2017-11-27T00:28:52.328Z,2.58
2017-11-27T00:29:55.348Z,2.57
2017-11-27T00:30:57.970Z,2.60
2017-11-27T00:32:00.508Z,2.62
2017-11-27T00:33:03.159Z,2.60
2017-11-27T00:34:05.719Z,2.57
2017-11-27T00:35:08.404Z,2.58
2017-11-27T00:36:11.370Z,2.56
2017-11-27T00:37:13.962Z,2.55
2017-11-27T00:38:16.592Z,2.56
2017-11-27T00:39:19.211Z,2.58
2017-11-27T00:40:21.846Z,2.56
2017-11-27T00:41:24.504Z,2.58
2017-11-27T00:42:27.549Z,2.57
2017-11-27T00:43:30.223Z,2.57
2017-11-27T00:44:32.839Z,2.54
2017-11-27T00:45:35.475Z,2.51
2017-11-27T00:46:38.068Z,2.56
2017-11-27T00:47:40.676Z,2.51
2017-11-27T00:48:43.787Z,2.48
2017-11-27T00:49:46.446Z,2.54
2017-11-27T00:50:49.066Z,2.51
2017-11-27T00:51:51.657Z,2.51
2017-11-27T00:52:54.255Z,2.55
2017-11-27T00:53:56.950Z,2.50
2017-11-27T00:55:00.097Z,2.55
2017-11-27T00:56:02.889Z,2.54
2017-11-27T00:57:05.712Z,2.51
2017-11-27T00:58:08.480Z,2.57
2017-11-27T00:59:11.186Z,2.51
2017-11-27T01:00:13.943Z,2.55
2017-11-27T01:01:17.299Z,2.55
2017-11-27T01:02:20.023Z,2.51
2017-11-27T01:03:22.647Z,2.54
2017-11-27T01:04:25.247Z,2.54
2017-11-27T01:05:27.906Z,2.54
2017-11-27T01:06:30.586Z,2.53
2017-11-27T01:07:33.657Z,2.56
2017-11-27T01:08:36.279Z,2.54
2017-11-27T01:09:38.891Z,2.56
2017-11-27T01:10:41.523Z,2.51
2017-11-27T01:11:44.234Z,2.53
2017-11-27T01:12:46.860Z,2.56
2017-11-27T01:13:49.888Z,2.54
2017-11-27T01:14:52.490Z,2.52
2017-11-27T01:15:55.119Z,2.55
2017-11-27T01:16:57.729Z,2.55
2017-11-27T01:18:00.341Z,2.53
2017-11-27T01:19:02.949Z,2.52
2017-11-27T01:20:05.858Z,2.50
2017-11-27T01:21:08.493Z,2.52
2017-11-27T01:22:11.163Z,2.51
2017-11-27T01:23:13.780Z,2.53
2017-11-27T01:24:17.333Z,2.54
2017-11-27T01:25:19.961Z,2.50
2017-11-27T01:26:22.916Z,2.48
2017-11-27T01:27:25.577Z,2.50
2017-11-27T01:28:28.307Z,2.50
2017-11-27T01:29:30.900Z,2.52
2017-11-27T01:30:33.586Z,2.47
2017-11-27T01:31:36.212Z,2.45
2017-11-27T01:32:39.348Z,2.43
2017-11-27T01:33:41.959Z,2.37
2017-11-27T01:34:44.563Z,2.41
2017-11-27T01:35:47.304Z,2.41
2017-11-27T01:36:49.900Z,2.34
2017-11-27T01:37:52.515Z,2.31
2017-11-27T01:38:55.604Z,2.29
2017-11-27T01:39:58.201Z,2.31
2017-11-27T01:41:00.890Z,2.33
2017-11-27T01:42:03.497Z,2.29
2017-11-27T01:43:06.176Z,2.30
2017-11-27T01:44:08.814Z,2.25
2017-11-27T01:45:11.739Z,2.24
2017-11-27T01:46:14.361Z,2.26
2017-11-27T01:47:16.969Z,2.28
2017-11-27T01:48:19.601Z,2.25
2017-11-27T01:49:22.242Z,2.20
2017-11-27T01:50:24.859Z,2.19
2017-11-27T01:51:27.796Z,2.22
2017-11-27T01:52:30.419Z,2.23
2017-11-27T01:53:33.090Z,2.23
2017-11-27T01:54:35.702Z,2.25
2017-11-27T01:55:38.354Z,2.28
2017-11-27T01:56:40.987Z,2.27
2017-11-27T01:57:43.987Z,2.28
2017-11-27T01:58:46.622Z,2.28
2017-11-27T01:59:49.217Z,2.29
2017-11-27T02:00:51.830Z,2.28
2017-11-27T02:01:54.425Z,2.27
2017-11-27T02:02:57.052Z,2.25
2017-11-27T02:03:59.995Z,2.30
2017-11-27T02:05:02.687Z,2.33
2017-11-27T02:06:05.312Z,2.29
2017-11-27T02:07:07.931Z,2.27
2017-11-27T02:08:10.613Z,2.26
2017-11-27T02:09:13.285Z,2.28
2017-11-27T02:10:16.263Z,2.30
2017-11-27T02:11:18.883Z,2.29
2017-11-27T02:12:21.524Z,2.30
2017-11-27T02:13:24.133Z,2.35
2017-11-27T02:14:26.780Z,2.30
2017-11-27T02:15:29.399Z,2.27
2017-11-27T02:16:32.414Z,2.27
2017-11-27T02:17:34.985Z,2.29
2017-11-27T02:18:37.736Z,2.28
2017-11-27T02:19:40.373Z,2.30
2017-11-27T02:20:43.035Z,2.31
2017-11-27T02:21:45.644Z,2.30
2017-11-27T02:22:49.138Z,2.32
2017-11-27T02:23:51.816Z,2.33
2017-11-27T02:24:54.491Z,2.30
2017-11-27T02:25:57.149Z,2.32
2017-11-27T02:26:59.789Z,2.25
2017-11-27T02:28:02.410Z,2.24
2017-11-27T02:29:05.455Z,2.24
2017-11-27T02:30:08.067Z,2.23
2017-11-27T02:31:10.673Z,2.15
2017-11-27T02:32:13.268Z,2.13
2017-11-27T02:33:15.854Z,2.14
2017-11-27T02:34:18.482Z,2.15
2017-11-27T02:35:21.474Z,2.14
2017-11-27T02:36:24.194Z,2.15
2017-11-27T02:37:26.790Z,2.18
2017-11-27T02:38:29.419Z,2.16
2017-11-27T02:39:31.992Z,2.16
2017-11-27T02:40:34.623Z,2.15
2017-11-27T02:41:37.701Z,2.17
2017-11-27T02:42:40.319Z,2.15
2017-11-27T02:43:42.885Z,2.19
2017-11-27T02:44:45.507Z,2.17
2017-11-27T02:45:48.079Z,2.14
2017-11-27T02:46:50.685Z,2.13
2017-11-27T02:47:53.714Z,2.19
2017-11-27T02:48:56.344Z,2.17
2017-11-27T02:49:58.965Z,2.14
2017-11-27T02:51:01.586Z,2.18
2017-11-27T02:52:04.214Z,2.17
2017-11-27T02:53:06.799Z,2.15
2017-11-27T02:54:09.923Z,2.14
2017-11-27T02:55:12.578Z,2.15
2017-11-27T02:56:15.196Z,2.16
2017-11-27T02:57:17.834Z,2.14
2017-11-27T02:58:20.489Z,2.16
2017-11-27T02:59:23.118Z,2.15
2017-11-27T03:00:26.136Z,2.16
2017-11-27T03:01:28.783Z,2.16
2017-11-27T03:02:31.384Z,2.16
2017-11-27T03:03:34.027Z,2.14
2017-11-27T03:04:36.630Z,2.11
2017-11-27T03:05:39.240Z,2.14
2017-11-27T03:06:42.333Z,2.11
2017-11-27T03:07:44.950Z,2.07
2017-11-27T03:08:47.533Z,2.08
2017-11-27T03:09:50.203Z,2.07
2017-11-27T03:10:52.755Z,2.05
2017-11-27T03:11:55.397Z,2.05
2017-11-27T03:12:58.367Z,2.02
2017-11-27T03:14:00.996Z,2.04
2017-11-27T03:15:03.487Z,1.98
2017-11-27T03:16:06.061Z,1.98
2017-11-27T03:17:08.681Z,2.04
2017-11-27T03:18:11.282Z,2.00
2017-11-27T03:19:14.362Z,1.89
2017-11-27T03:20:17.021Z,1.82
2017-11-27T03:21:19.589Z,1.70
2017-11-27T03:22:22.193Z,1.57
2017-11-27T03:23:24.768Z,1.45
2017-11-27T03:24:27.377Z,1.46
2017-11-27T03:25:30.366Z,1.45
2017-11-27T03:26:32.989Z,1.42
2017-11-27T03:27:35.601Z,1.33
2017-11-27T03:28:38.234Z,1.36
2017-11-27T03:29:40.940Z,1.38
2017-11-27T03:30:43.585Z,1.41
2017-11-27T03:31:46.720Z,1.44
2017-11-27T03:32:49.483Z,1.43
2017-11-27T03:33:52.088Z,1.46
2017-11-27T03:34:54.869Z,1.42
2017-11-27T03:35:57.582Z,1.37
2017-11-27T03:37:00.251Z,1.36
2017-11-27T03:38:03.313Z,1.39
2017-11-27T03:39:05.958Z,1.43
2017-11-27T03:40:08.564Z,1.39
2017-11-27T03:41:11.231Z,1.41
2017-11-27T03:42:14.047Z,1.42
2017-11-27T03:43:16.657Z,1.41
2017-11-27T03:44:19.624Z,1.41
2017-11-27T03:45:22.244Z,1.46
2017-11-27T03:46:24.890Z,1.49
2017-11-27T03:47:27.475Z,1.45
2017-11-27T03:48:30.103Z,1.43
2017-11-27T03:49:32.703Z,1.46
2017-11-27T03:50:35.643Z,1.46
2017-11-27T03:51:38.259Z,1.44
2017-11-27T03:52:40.859Z,1.45
2017-11-27T03:53:43.480Z,1.41
2017-11-27T03:54:46.062Z,1.41
2017-11-27T03:55:48.692Z,1.45
2017-11-27T03:56:51.278Z,1.46
2017-11-27T03:57:53.889Z,1.48
2017-11-27T03:58:56.485Z,1.48
2017-11-27T03:59:59.111Z,1.52
2017-11-27T04:01:01.789Z,1.50
2017-11-27T04:02:04.424Z,1.53
2017-11-27T04:03:07.532Z,1.52
2017-11-27T04:04:12.866Z,1.50
2017-11-27T04:05:15.502Z,1.48
2017-11-27T04:06:18.105Z,1.52
2017-11-27T04:07:20.696Z,1.55
2017-11-27T04:08:23.288Z,1.52
2017-11-27T04:09:26.322Z,1.51
2017-11-27T04:10:28.890Z,1.52
2017-11-27T04:11:31.478Z,1.57
2017-11-27T04:12:34.047Z,1.54
2017-11-27T04:13:36.650Z,1.59
2017-11-27T04:14:39.284Z,1.58
2017-11-27T04:15:42.365Z,1.56
2017-11-27T04:16:45.008Z,1.58
2017-11-27T04:17:47.534Z,1.59
2017-11-27T04:18:50.129Z,1.60
2017-11-27T04:19:53.686Z,1.54
2017-11-27T04:20:56.332Z,1.56
2017-11-27T04:21:58.943Z,1.58
2017-11-27T04:23:01.552Z,1.57
2017-11-27T04:24:04.073Z,1.63
2017-11-27T04:25:06.578Z,1.58
2017-11-27T04:26:09.160Z,1.58
2017-11-27T04:27:11.787Z,1.58
2017-11-27T04:28:14.423Z,1.59
2017-11-27T04:29:17.013Z,1.64
2017-11-27T04:30:19.626Z,1.62
2017-11-27T04:31:22.236Z,1.65
2017-11-27T04:32:25.304Z,1.67
2017-11-27T04:33:28.000Z,1.63
2017-11-27T04:34:30.681Z,1.60
2017-11-27T04:35:33.251Z,1.61
2017-11-27T04:36:35.845Z,1.62
2017-11-27T04:37:38.463Z,1.64
2017-11-27T04:38:41.499Z,1.61
2017-11-27T04:39:44.145Z,1.63
2017-11-27T04:40:46.764Z,1.60
2017-11-27T04:41:49.378Z,1.65
2017-11-27T04:42:52.064Z,1.60
2017-11-27T04:43:54.762Z,1.62
2017-11-27T04:44:58.215Z,1.61
2017-11-27T04:46:00.869Z,1.59
2017-11-27T04:47:03.546Z,1.58
2017-11-27T04:48:06.143Z,1.57
2017-11-27T04:49:08.776Z,1.59
2017-11-27T04:50:11.837Z,1.62
2017-11-27T04:51:14.425Z,1.61
2017-11-27T04:52:17.018Z,1.59
2017-11-27T04:53:19.649Z,1.57
2017-11-27T04:54:22.267Z,1.62
2017-11-27T04:55:24.880Z,1.61
2017-11-27T04:56:27.825Z,1.57
2017-11-27T04:57:30.466Z,1.55
2017-11-27T04:58:33.084Z,1.56
2017-11-27T04:59:35.622Z,1.53
2017-11-27T05:00:38.161Z,1.52
2017-11-27T05:01:40.663Z,1.55
2017-11-27T05:02:43.660Z,1.56
2017-11-27T05:03:46.173Z,1.55
2017-11-27T05:04:48.747Z,1.56
2017-11-27T05:05:51.366Z,1.56
2017-11-27T05:06:53.981Z,1.52
2017-11-27T05:07:56.541Z,1.51
2017-11-27T05:08:59.154Z,1.51
2017-11-27T05:10:01.736Z,1.54
2017-11-27T05:11:04.344Z,1.51
2017-11-27T05:12:07.022Z,1.49
2017-11-27T05:13:09.792Z,1.45
2017-11-27T05:14:12.772Z,1.46
2017-11-27T05:15:15.381Z,1.49
2017-11-27T05:16:17.976Z,1.44
2017-11-27T05:17:20.603Z,1.44
2017-11-27T05:18:23.234Z,1.45
2017-11-27T05:19:25.866Z,1.46
2017-11-27T05:20:28.838Z,1.46
2017-11-27T05:21:31.537Z,1.48
2017-11-27T05:22:34.130Z,1.51
2017-11-27T05:23:36.735Z,1.45
2017-11-27T05:24:39.562Z,1.44
2017-11-27T05:25:42.358Z,1.42
2017-11-27T05:26:45.421Z,1.41
2017-11-27T05:27:48.018Z,1.39
2017-11-27T05:28:50.683Z,1.37
2017-11-27T05:29:53.363Z,1.39
2017-11-27T05:30:56.028Z,1.43
2017-11-27T05:31:58.676Z,1.40
2017-11-27T05:33:01.750Z,1.38
2017-11-27T05:34:04.461Z,1.40
2017-11-27T05:35:07.093Z,1.42
2017-11-27T05:36:09.697Z,1.43
2017-11-27T05:37:12.438Z,1.41
2017-11-27T05:38:15.084Z,1.40
2017-11-27T05:39:18.172Z,1.40
2017-11-27T05:40:20.741Z,1.38
2017-11-27T05:41:23.379Z,1.40
2017-11-27T05:42:26.001Z,1.41
2017-11-27T05:43:28.644Z,1.39
2017-11-27T05:44:31.261Z,1.42
2017-11-27T05:45:34.302Z,1.42
2017-11-27T05:46:36.868Z,1.41
2017-11-27T05:47:39.441Z,1.39
2017-11-27T05:48:42.098Z,1.43
2017-11-27T05:49:44.684Z,1.44
2017-11-27T05:50:47.303Z,1.40
2017-11-27T05:51:50.431Z,1.41
2017-11-27T05:52:53.056Z,1.41
2017-11-27T05:53:55.663Z,1.36
2017-11-27T05:54:58.387Z,1.34
2017-11-27T05:56:00.960Z,1.34
2017-11-27T05:57:03.719Z,1.36
2017-11-27T05:58:06.916Z,1.37
2017-11-27T05:59:09.890Z,1.35
2017-11-27T06:00:12.512Z,1.37
2017-11-27T06:01:15.192Z,1.35
2017-11-27T06:02:17.854Z,1.38
2017-11-27T06:03:20.489Z,1.39
2017-11-27T06:04:23.491Z,1.37
2017-11-27T06:05:26.117Z,1.34
2017-11-27T06:06:28.749Z,1.35
2017-11-27T06:07:31.376Z,1.33
2017-11-27T06:08:33.978Z,1.32
2017-11-27T06:09:36.596Z,1.34
2017-11-27T06:10:39.693Z,1.33
2017-11-27T06:11:42.329Z,1.37
2017-11-27T06:12:44.954Z,1.41
2017-11-27T06:13:47.576Z,1.44
2017-11-27T06:14:50.265Z,1.44
2017-11-27T06:15:52.887Z,1.47
2017-11-27T06:16:55.880Z,1.49
2017-11-27T06:17:58.503Z,1.48
2017-11-27T06:19:01.128Z,1.46
2017-11-27T06:20:03.781Z,1.45
2017-11-27T06:21:06.455Z,1.46
2017-11-27T06:22:09.466Z,1.45
2017-11-27T06:23:12.913Z,1.50
2017-11-27T06:24:15.863Z,1.51
2017-11-27T06:25:18.914Z,1.52
2017-11-27T06:26:21.600Z,1.48
2017-11-27T06:27:24.296Z,1.49
2017-11-27T06:28:26.904Z,1.48
2017-11-27T06:29:30.019Z,1.51
2017-11-27T06:30:32.684Z,1.53
2017-11-27T06:31:35.414Z,1.51
2017-11-27T06:32:37.969Z,1.49
2017-11-27T06:33:40.581Z,1.48
2017-11-27T06:34:43.137Z,1.48
2017-11-27T06:35:46.175Z,1.49
2017-11-27T06:36:48.792Z,1.53
2017-11-27T06:37:51.416Z,1.49
2017-11-27T06:38:54.164Z,1.52
2017-11-27T06:39:56.820Z,1.56
2017-11-27T06:40:59.495Z,1.55
2017-11-27T06:42:02.342Z,1.57
2017-11-27T06:43:04.815Z,1.56
2017-11-27T06:44:07.302Z,1.54
2017-11-27T06:45:09.846Z,1.56
2017-11-27T06:46:13.126Z,1.60
2017-11-27T06:47:15.799Z,1.61
2017-11-27T06:48:18.923Z,1.61
2017-11-27T06:49:21.666Z,1.62
2017-11-27T06:50:24.312Z,1.64
2017-11-27T06:51:26.984Z,1.63
2017-11-27T06:52:29.598Z,1.66
2017-11-27T06:53:32.229Z,1.68
2017-11-27T06:54:35.315Z,1.68
2017-11-27T06:55:37.945Z,1.69
2017-11-27T06:56:40.571Z,1.70
2017-11-27T06:57:43.275Z,1.71
2017-11-27T06:58:45.905Z,1.68
2017-11-27T06:59:48.602Z,1.65
2017-11-27T07:00:51.561Z,1.65
2017-11-27T07:01:54.194Z,1.69
2017-11-27T07:02:56.801Z,1.69
2017-11-27T07:03:59.471Z,1.70
2017-11-27T07:05:02.135Z,1.70
2017-11-27T07:06:04.886Z,1.71
2017-11-27T07:07:07.628Z,1.73
2017-11-27T07:08:10.284Z,1.76
2017-11-27T07:09:12.907Z,1.74
2017-11-27T07:10:15.533Z,1.72
2017-11-27T07:11:18.155Z,1.74
2017-11-27T07:12:20.909Z,1.75
2017-11-27T07:13:23.607Z,1.72
2017-11-27T07:14:26.314Z,1.78
2017-11-27T07:15:30.048Z,1.83
2017-11-27T07:16:32.709Z,1.81
2017-11-27T07:17:35.341Z,1.86
2017-11-27T07:18:38.457Z,1.88
2017-11-27T07:19:41.067Z,1.87
2017-11-27T07:20:43.736Z,1.88
2017-11-27T07:21:46.385Z,1.89
2017-11-27T07:22:48.970Z,1.86
2017-11-27T07:23:51.626Z,1.82
2017-11-27T07:24:54.694Z,1.87
2017-11-27T07:25:57.256Z,1.88
2017-11-27T07:26:59.883Z,1.89
2017-11-27T07:28:02.548Z,1.91
2017-11-27T07:29:05.187Z,1.93
2017-11-27T07:30:07.884Z,1.90
2017-11-27T07:31:11.245Z,1.91
2017-11-27T07:32:13.902Z,1.87
2017-11-27T07:33:16.526Z,1.93
2017-11-27T07:34:19.159Z,1.95
2017-11-27T07:35:21.796Z,1.96
2017-11-27T07:36:24.751Z,1.93
2017-11-27T07:37:31.750Z,1.96
2017-11-27T07:40:42.286Z,1.95
2017-11-27T07:41:44.917Z,1.98
2017-11-27T07:42:47.533Z,2.00
2017-11-27T07:43:50.160Z,1.99
2017-11-27T07:44:52.870Z,1.99
2017-11-27T07:45:55.518Z,1.99
2017-11-27T07:46:58.212Z,2.01
2017-11-27T07:48:00.830Z,2.01
2017-11-27T07:49:03.844Z,2.03
2017-11-27T07:50:06.531Z,1.99
2017-11-27T07:51:09.168Z,2.00
2017-11-27T07:52:11.811Z,1.97
2017-11-27T07:53:14.552Z,1.99
2017-11-27T07:54:17.315Z,2.00
2017-11-27T07:55:20.492Z,2.02
2017-11-27T07:56:23.137Z,2.01
2017-11-27T07:57:25.771Z,2.00
2017-11-27T07:58:28.479Z,2.03
2017-11-27T07:59:31.427Z,2.05
2017-11-27T08:00:34.069Z,2.06
2017-11-27T08:01:36.969Z,2.08
2017-11-27T08:02:39.605Z,2.08
2017-11-27T08:03:42.211Z,2.06
2017-11-27T08:04:44.854Z,2.04
2017-11-27T08:05:47.467Z,2.01
2017-11-27T08:06:50.150Z,2.01
2017-11-27T08:07:53.261Z,2.06
2017-11-27T08:08:55.909Z,2.08
2017-11-27T08:09:59.058Z,2.08
2017-11-27T08:11:01.758Z,2.11
2017-11-27T08:12:04.469Z,2.10
2017-11-27T08:13:07.816Z,2.07
2017-11-27T08:14:10.949Z,2.09
2017-11-27T08:15:13.654Z,2.10
2017-11-27T08:16:16.251Z,2.08
2017-11-27T08:17:18.865Z,2.10
2017-11-27T08:18:21.575Z,2.12
2017-11-27T08:19:24.169Z,2.14
2017-11-27T08:20:27.172Z,2.18
2017-11-27T08:21:30.052Z,2.20
2017-11-27T08:22:32.717Z,2.17
2017-11-27T08:23:35.322Z,2.19
2017-11-27T08:24:38.539Z,2.22
2017-11-27T08:25:41.192Z,2.20
2017-11-27T08:26:44.180Z,2.26
2017-11-27T08:27:46.863Z,2.22
2017-11-27T08:28:49.474Z,2.23
2017-11-27T08:29:52.060Z,2.27
2017-11-27T08:30:54.708Z,2.29
2017-11-27T08:31:57.526Z,2.27
2017-11-27T08:33:00.606Z,2.21
2017-11-27T08:34:03.258Z,2.22
2017-11-27T08:35:05.913Z,2.24
2017-11-27T08:36:08.523Z,2.21
2017-11-27T08:37:11.188Z,2.19
2017-11-27T08:38:13.848Z,2.19
2017-11-27T08:39:16.935Z,2.20
2017-11-27T08:40:19.535Z,2.22
2017-11-27T08:41:22.205Z,2.18
2017-11-27T08:42:24.811Z,2.21
2017-11-27T08:43:27.432Z,2.22
2017-11-27T08:44:30.045Z,2.23
2017-11-27T08:45:33.020Z,2.20
2017-11-27T08:46:35.681Z,2.24
2017-11-27T08:47:38.349Z,2.23
2017-11-27T08:48:40.935Z,2.26
2017-11-27T08:49:43.571Z,2.25
2017-11-27T08:50:46.166Z,2.27
2017-11-27T08:51:49.259Z,2.27
2017-11-27T08:52:51.886Z,2.25
2017-11-27T08:53:54.571Z,2.25
2017-11-27T08:54:57.244Z,2.26
2017-11-27T08:55:59.996Z,2.26
2017-11-27T08:57:02.709Z,2.30
2017-11-27T08:58:05.771Z,2.32
2017-11-27T08:59:08.490Z,2.28
2017-11-27T09:00:11.281Z,2.28
2017-11-27T09:01:13.961Z,2.29
2017-11-27T09:02:16.601Z,2.32
2017-11-27T09:03:19.325Z,2.31
2017-11-27T09:04:22.393Z,2.31
2017-11-27T09:05:25.010Z,2.32
2017-11-27T09:06:27.791Z,2.34
2017-11-27T09:07:30.437Z,2.35
2017-11-27T09:08:33.081Z,2.37
2017-11-27T09:09:35.731Z,2.36
2017-11-27T09:10:38.915Z,2.36
2017-11-27T09:11:41.538Z,2.39
2017-11-27T09:12:44.301Z,2.43
2017-11-27T09:13:46.927Z,2.43
2017-11-27T09:14:49.544Z,2.38
2017-11-27T09:15:52.164Z,2.44
2017-11-27T09:16:55.185Z,2.43
2017-11-27T09:17:57.858Z,2.43
2017-11-27T09:19:00.482Z,2.40
2017-11-27T09:20:03.166Z,2.41
2017-11-27T09:21:05.792Z,2.42
2017-11-27T09:22:08.408Z,2.45
2017-11-27T09:23:11.334Z,2.47
2017-11-27T09:24:13.992Z,2.48
2017-11-27T09:25:16.579Z,2.48
2017-11-27T09:26:19.236Z,2.47
2017-11-27T09:27:21.981Z,2.44
2017-11-27T09:28:24.691Z,2.46
2017-11-27T09:29:27.729Z,2.51
2017-11-27T09:30:30.420Z,2.50
2017-11-27T09:31:33.050Z,2.48
2017-11-27T09:32:35.580Z,2.49
2017-11-27T09:33:38.086Z,2.50
2017-11-27T09:34:40.623Z,2.47
2017-11-27T09:35:43.643Z,2.47
2017-11-27T09:36:46.231Z,2.48
2017-11-27T09:37:48.816Z,2.51
2017-11-27T09:38:51.453Z,2.53
2017-11-27T09:39:53.986Z,2.55
2017-11-27T09:40:56.543Z,2.54
2017-11-27T09:41:59.531Z,2.56
2017-11-27T09:43:02.291Z,2.58
2017-11-27T09:44:04.914Z,2.56
2017-11-27T09:45:07.652Z,2.53
2017-11-27T09:46:10.366Z,2.56
2017-11-27T09:47:13.027Z,2.57
2017-11-27T09:48:16.067Z,2.61
2017-11-27T09:49:18.735Z,2.63
2017-11-27T09:50:21.358Z,2.67
2017-11-27T09:51:25.135Z,2.65
2017-11-27T09:52:27.862Z,2.67
2017-11-27T09:53:30.505Z,2.68
2017-11-27T09:54:33.210Z,2.69
2017-11-27T09:55:35.803Z,2.71
2017-11-27T09:56:38.511Z,2.73
2017-11-27T09:57:41.133Z,2.75
2017-11-27T09:58:43.735Z,2.76
2017-11-27T09:59:46.704Z,2.78
2017-11-27T10:00:49.330Z,2.77
2017-11-27T10:01:51.964Z,2.76
2017-11-27T10:02:54.679Z,2.77
2017-11-27T10:03:57.337Z,2.81
2017-11-27T10:05:00.414Z,2.80
2017-11-27T10:06:03.385Z,2.80
2017-11-27T10:07:06.088Z,2.77
2017-11-27T10:08:08.713Z,2.84
2017-11-27T10:09:11.524Z,2.87
2017-11-27T10:10:14.200Z,2.88
2017-11-27T10:11:16.838Z,2.86
2017-11-27T10:12:19.908Z,2.87
2017-11-27T10:13:22.527Z,2.87
2017-11-27T10:14:25.157Z,2.87
2017-11-27T10:15:28.656Z,2.87
2017-11-27T10:16:31.476Z,2.93
2017-11-27T10:17:34.557Z,2.91
2017-11-27T10:18:37.755Z,2.90
2017-11-27T10:19:40.416Z,2.91
2017-11-27T10:20:44.571Z,2.92
2017-11-27T10:21:47.275Z,2.90
2017-11-27T10:22:49.888Z,2.89
2017-11-27T10:23:53.047Z,2.90
2017-11-27T10:24:56.901Z,2.93
2017-11-27T10:26:00.486Z,2.93
2017-11-27T10:27:10.094Z,2.95
2017-11-27T10:28:13.773Z,2.98
2017-11-27T10:29:17.897Z,3.01
2017-11-27T10:30:20.608Z,3.04
2017-11-27T10:31:23.696Z,3.03
2017-11-27T10:32:26.657Z,3.03
2017-11-27T10:33:29.295Z,3.03
2017-11-27T10:34:31.910Z,3.03
2017-11-27T10:35:34.550Z,3.07
2017-11-27T10:36:37.867Z,3.08
2017-11-27T10:37:40.823Z,3.08
2017-11-27T10:38:43.471Z,3.11
2017-11-27T10:39:46.298Z,3.10
2017-11-27T10:40:49.812Z,3.10
2017-11-27T10:41:52.541Z,3.13
2017-11-27T10:42:55.189Z,3.12
2017-11-27T10:43:59.850Z,3.10
2017-11-27T10:45:03.137Z,3.10
2017-11-27T10:46:06.215Z,3.10
2017-11-27T10:47:08.927Z,3.17
2017-11-27T10:48:11.649Z,3.16
2017-11-27T10:49:15.465Z,3.16
2017-11-27T10:50:19.370Z,3.17
2017-11-27T10:51:22.104Z,3.19
2017-11-27T10:52:25.208Z,3.21
2017-11-27T10:53:27.944Z,3.22
2017-11-27T10:54:30.593Z,3.24
2017-11-27T10:55:33.668Z,3.24
2017-11-27T10:56:36.908Z,3.23
2017-11-27T10:57:39.562Z,3.25
2017-11-27T10:58:42.226Z,3.26
2017-11-27T10:59:44.875Z,3.24
2017-11-27T11:00:51.544Z,3.27
2017-11-27T11:01:55.377Z,3.30
2017-11-27T11:02:58.075Z,3.29
2017-11-27T11:04:00.726Z,3.28
2017-11-27T11:05:03.408Z,3.29
2017-11-27T11:06:06.072Z,3.31
2017-11-27T11:07:08.697Z,3.33
2017-11-27T11:08:11.319Z,3.31
2017-11-27T11:09:14.374Z,3.35
2017-11-27T11:10:16.990Z,3.33
2017-11-27T11:11:19.666Z,3.34
2017-11-27T11:12:22.295Z,3.34
2017-11-27T11:13:25.226Z,3.38
2017-11-27T11:14:28.916Z,3.38
2017-11-27T11:15:31.983Z,3.38
2017-11-27T11:16:34.617Z,3.38
2017-11-27T11:17:37.528Z,3.39
2017-11-27T11:18:40.174Z,3.43
2017-11-27T11:19:42.853Z,3.41
2017-11-27T11:20:45.439Z,3.44
2017-11-27T11:21:48.494Z,3.43
2017-11-27T11:22:51.139Z,3.43
2017-11-27T11:23:53.865Z,3.43
2017-11-27T11:24:56.685Z,3.44
2017-11-27T11:25:59.324Z,3.43
2017-11-27T11:27:02.027Z,3.43
2017-11-27T11:28:05.000Z,3.43
2017-11-27T11:29:07.670Z,3.45
2017-11-27T11:30:10.377Z,3.48
2017-11-27T11:31:13.070Z,3.47
2017-11-27T11:32:15.767Z,3.47
2017-11-27T11:33:18.368Z,3.51
2017-11-27T11:34:21.329Z,3.51
2017-11-27T11:35:23.989Z,3.49
2017-11-27T11:36:26.684Z,3.51
2017-11-27T11:37:29.341Z,3.51
2017-11-27T11:38:31.985Z,3.50
2017-11-27T11:39:34.842Z,3.54
2017-11-27T11:40:37.980Z,3.52
2017-11-27T11:41:40.666Z,3.54
2017-11-27T11:42:43.293Z,3.53
2017-11-27T11:43:46.680Z,3.53
2017-11-27T11:44:49.291Z,3.53
2017-11-27T11:45:51.949Z,3.55
2017-11-27T11:46:54.836Z,3.55
2017-11-27T11:47:57.540Z,3.54
2017-11-27T11:49:00.148Z,3.57
2017-11-27T11:50:02.800Z,3.56
2017-11-27T11:51:05.435Z,3.56
2017-11-27T11:52:08.670Z,3.58
2017-11-27T11:53:11.573Z,3.57
2017-11-27T11:54:14.266Z,3.56
2017-11-27T11:55:16.876Z,3.57
2017-11-27T11:56:19.532Z,3.57
2017-11-27T11:57:22.613Z,3.58
2017-11-27T11:58:25.288Z,3.60
2017-11-27T11:59:28.424Z,3.61
2017-11-27T12:00:31.021Z,3.60
2017-11-27T12:01:33.998Z,3.59
2017-11-27T12:02:36.638Z,3.59
2017-11-27T12:03:39.321Z,3.58
2017-11-27T12:04:41.930Z,3.58
2017-11-27T12:05:44.875Z,3.60
2017-11-27T12:06:47.527Z,3.60
2017-11-27T12:07:50.209Z,3.60
2017-11-27T12:08:52.809Z,3.61
2017-11-27T12:09:55.422Z,3.58
2017-11-27T12:10:58.103Z,3.59
2017-11-27T12:12:00.799Z,3.60
2017-11-27T12:13:03.450Z,3.60
2017-11-27T12:14:06.241Z,3.61
2017-11-27T12:15:10.339Z,3.58
2017-11-27T12:16:13.040Z,3.57
2017-11-27T12:17:16.086Z,3.58
2017-11-27T12:18:18.800Z,3.58
2017-11-27T12:19:21.713Z,3.56
2017-11-27T12:20:24.297Z,3.59
2017-11-27T12:21:27.002Z,3.60
2017-11-27T12:22:30.567Z,3.58
2017-11-27T12:23:33.709Z,3.58
2017-11-27T12:24:36.319Z,3.57
2017-11-27T12:25:39.183Z,3.57
2017-11-27T12:26:41.821Z,3.56
2017-11-27T12:27:44.443Z,3.56
2017-11-27T12:28:47.121Z,3.57
2017-11-27T12:29:50.223Z,3.55
2017-11-27T12:30:52.818Z,3.55
2017-11-27T12:31:55.540Z,3.55
2017-11-27T12:32:58.307Z,3.57
2017-11-27T12:34:01.945Z,3.57
2017-11-27T12:35:04.585Z,3.58
2017-11-27T12:36:07.202Z,3.59
2017-11-27T12:37:10.148Z,3.60
2017-11-27T12:38:13.336Z,3.60
2017-11-27T12:39:17.286Z,3.62
2017-11-27T12:40:21.133Z,3.59
2017-11-27T12:41:25.566Z,3.60
2017-11-27T12:42:28.629Z,3.59
2017-11-27T12:43:31.401Z,3.60
2017-11-27T12:44:34.736Z,3.61
2017-11-27T12:45:37.439Z,3.62
2017-11-27T12:46:40.351Z,3.61
2017-11-27T12:47:45.144Z,3.61
2017-11-27T12:48:47.785Z,3.65
2017-11-27T12:49:51.208Z,3.62
2017-11-27T12:50:54.108Z,3.63
2017-11-27T12:51:56.680Z,3.63
2017-11-27T12:53:00.524Z,3.63
2017-11-27T12:54:03.171Z,3.63
2017-11-27T12:55:05.853Z,3.63
2017-11-27T12:56:08.586Z,3.63
2017-11-27T12:57:12.120Z,3.65
2017-11-27T12:58:14.644Z,3.68
2017-11-27T12:59:17.753Z,3.66
2017-11-27T13:00:20.451Z,3.67
2017-11-27T13:01:23.407Z,3.67
2017-11-27T13:02:25.922Z,3.65
2017-11-27T13:03:28.496Z,3.66
2017-11-27T13:04:31.099Z,3.68
2017-11-27T13:05:34.042Z,3.67
2017-11-27T13:06:36.649Z,3.72
2017-11-27T13:07:40.456Z,3.73
2017-11-27T13:08:43.049Z,3.73
2017-11-27T13:09:45.858Z,3.73
2017-11-27T13:10:49.807Z,3.74
2017-11-27T13:11:53.792Z,3.79
2017-11-27T13:12:58.753Z,3.76
2017-11-27T13:14:01.358Z,3.77
2017-11-27T13:15:04.042Z,3.79
2017-11-27T13:16:07.263Z,3.78
2017-11-27T13:17:10.079Z,3.80
2017-11-27T13:18:13.036Z,3.80
2017-11-27T13:19:15.693Z,3.82
2017-11-27T13:20:18.328Z,3.84
2017-11-27T13:21:20.955Z,3.81
2017-11-27T13:22:23.628Z,3.80
2017-11-27T13:23:26.259Z,3.87
2017-11-27T13:24:29.328Z,3.86
2017-11-27T13:25:31.967Z,3.88
2017-11-27T13:26:34.823Z,3.86
2017-11-27T13:27:38.703Z,3.83
2017-11-27T13:28:41.361Z,3.83
2017-11-27T13:29:43.997Z,3.85
2017-11-27T13:30:46.879Z,3.85
2017-11-27T13:31:49.490Z,3.87
2017-11-27T13:32:52.071Z,3.90
2017-11-27T13:33:54.840Z,3.86
2017-11-27T13:34:57.500Z,3.85
2017-11-27T13:36:00.146Z,3.86
2017-11-27T13:37:03.132Z,3.87
2017-11-27T13:38:05.832Z,3.86
2017-11-27T13:39:08.470Z,3.87
2017-11-27T13:40:11.097Z,3.88
2017-11-27T13:41:13.693Z,3.89
2017-11-27T13:42:16.437Z,3.93
2017-11-27T13:43:19.525Z,3.95
2017-11-27T13:44:22.236Z,3.92
2017-11-27T13:45:24.934Z,3.89
2017-11-27T13:46:27.606Z,3.96
2017-11-27T13:47:30.237Z,3.93
2017-11-27T13:48:33.046Z,4.04
2017-11-27T13:49:36.084Z,4.00
2017-11-27T13:50:38.782Z,3.96
2017-11-27T13:51:42.672Z,3.96
2017-11-27T13:52:45.783Z,3.97
2017-11-27T13:53:48.373Z,3.98
2017-11-27T13:54:50.991Z,3.97
2017-11-27T13:55:53.938Z,3.97
2017-11-27T13:56:56.552Z,3.97
2017-11-27T13:57:59.182Z,3.98